Time,TemperatureF,DewpointF,PressureIn,WindDirection,WindDirectionDegrees,WindSpeedMPH,WindSpeedGustMPH,Humidity,HourlyPrecipIn,Conditions,Clouds,dailyrainin,SoftwareType,DateUTC
2013-08-03 00:06:00,64.2,56.5,29.92,North,0,0.0,0.0,76,0.00,,,0.00,WUHU21023XXSP,2013-08-03 05:06:00,
2013-08-03 00:12:00,63.7,55.9,29.92,North,0,0.0,0.0,76,0.00,,,0.00,WUHU21023XXSP,2013-08-03 05:12:00,
2013-08-03 00:18:00,63.5,55.8,29.93,North,0,0.0,0.0,76,0.00,,,0.00,WUHU21023XXSP,2013-08-03 05:18:00,
2013-08-03 00:25:00,63.1,55.4,29.93,North,0,0.0,0.0,76,0.00,,,0.00,WUHU21023XXSP,2013-08-03 05:25:00,
2013-08-03 00:32:00,62.8,55.0,29.93,North,0,0.0,0.0,76,0.00,,,0.00,WUHU21023XXSP,2013-08-03 05:32:00,
2013-08-03 00:38:00,62.4,54.7,29.93,North,0,0.0,0.0,76,0.00,,,0.00,WUHU21023XXSP,2013-08-03 05:38:00,
2013-08-03 00:44:00,62.2,54.9,29.93,North,0,0.0,0.0,77,0.00,,,0.00,WUHU21023XXSP,2013-08-03 05:44:00,
2013-08-03 00:50:00,61.9,54.6,29.93,North,0,0.0,0.0,77,0.00,,,0.00,WUHU21023XXSP,2013-08-03 05:50:00,
2013-08-03 00:57:00,61.7,54.4,29.94,North,0,0.0,0.0,77,0.00,,,0.00,WUHU21023XXSP,2013-08-03 05:57:00,
2013-08-03 01:10:00,61.5,54.2,29.94,North,0,0.0,0.0,77,0.00,,,0.00,WUHU21023XXSP,2013-08-03 06:10:00,
2013-08-03 01:16:00,61.0,53.8,29.94,North,0,0.0,0.0,77,0.00,,,0.00,WUHU21023XXSP,2013-08-03 06:16:00,
2013-08-03 01:23:00,60.6,53.4,29.94,North,0,0.0,0.0,77,0.00,,,0.00,WUHU21023XXSP,2013-08-03 06:23:00,
2013-08-03 01:29:00,60.4,53.2,29.94,North,0,0.0,0.0,77,0.00,,,0.00,WUHU21023XXSP,2013-08-03 06:29:00,
2013-08-03 01:35:00,60.1,52.9,29.95,North,0,0.0,0.0,77,0.00,,,0.00,WUHU21023XXSP,2013-08-03 06:35:00,
2013-08-03 01:42:00,59.9,52.7,29.95,North,0,0.0,0.0,77,0.00,,,0.00,WUHU21023XXSP,2013-08-03 06:42:00,
2013-08-03 01:48:00,59.7,52.9,29.95,North,0,0.0,0.0,78,0.00,,,0.00,WUHU21023XXSP,2013-08-03 06:48:00,
2013-08-03 01:55:00,59.5,52.7,29.95,North,0,0.0,0.0,78,0.00,,,0.00,WUHU21023XXSP,2013-08-03 06:55:00,
2013-08-03 02:01:00,59.5,52.7,29.95,North,0,0.0,0.0,78,0.00,,,0.00,WUHU21023XXSP,2013-08-03 07:01:00,
2013-08-03 02:07:00,59.2,52.3,29.95,North,0,0.0,0.0,78,0.00,,,0.00,WUHU21023XXSP,2013-08-03 07:07:00,
2013-08-03 02:14:00,58.8,52.0,29.95,North,0,0.0,0.0,78,0.00,,,0.00,WUHU21023XXSP,2013-08-03 07:14:00,
2013-08-03 02:20:00,58.8,52.0,29.96,North,0,0.0,0.0,78,0.00,,,0.00,WUHU21023XXSP,2013-08-03 07:20:00,
2013-08-03 02:27:00,58.8,52.0,29.95,North,0,0.0,0.0,78,0.00,,,0.00,WUHU21023XXSP,2013-08-03 07:27:00,
2013-08-03 02:33:00,58.8,52.0,29.96,North,0,0.0,0.0,78,0.00,,,0.00,WUHU21023XXSP,2013-08-03 07:33:00,
2013-08-03 02:40:00,58.6,51.8,29.96,North,0,0.0,0.0,78,0.00,,,0.00,WUHU21023XXSP,2013-08-03 07:40:00,
2013-08-03 02:46:00,58.3,51.4,29.96,North,0,0.0,0.0,78,0.00,,,0.00,WUHU21023XXSP,2013-08-03 07:46:00,
2013-08-03 02:53:00,57.9,51.1,29.96,North,0,0.0,0.0,78,0.00,,,0.00,WUHU21023XXSP,2013-08-03 07:53:00,
2013-08-03 02:59:00,57.9,51.1,29.97,North,0,0.0,0.0,78,0.00,,,0.00,WUHU21023XXSP,2013-08-03 07:59:00,
2013-08-03 03:05:00,57.6,50.7,29.96,North,0,0.0,0.0,78,0.00,,,0.00,WUHU21023XXSP,2013-08-03 08:05:00,
2013-08-03 03:12:00,57.4,50.5,29.97,North,0,0.0,0.0,78,0.00,,,0.00,WUHU21023XXSP,2013-08-03 08:12:00,
2013-08-03 03:18:00,57.4,50.5,29.97,North,0,0.0,0.0,78,0.00,,,0.00,WUHU21023XXSP,2013-08-03 08:18:00,
2013-08-03 03:25:00,57.0,50.2,29.97,North,0,0.0,0.0,78,0.00,,,0.00,WUHU21023XXSP,2013-08-03 08:25:00,
2013-08-03 03:31:00,57.0,50.2,29.97,North,0,0.0,0.0,78,0.00,,,0.00,WUHU21023XXSP,2013-08-03 08:31:00,
2013-08-03 03:37:00,56.8,50.0,29.98,North,0,0.0,0.0,78,0.00,,,0.00,WUHU21023XXSP,2013-08-03 08:37:00,
2013-08-03 03:44:00,56.8,50.0,29.98,North,0,0.0,0.0,78,0.00,,,0.00,WUHU21023XXSP,2013-08-03 08:44:00,
2013-08-03 03:50:00,56.7,49.8,29.98,North,0,0.0,0.0,78,0.00,,,0.00,WUHU21023XXSP,2013-08-03 08:50:00,
2013-08-03 03:57:00,56.5,49.6,29.98,North,0,0.0,0.0,78,0.00,,,0.00,WUHU21023XXSP,2013-08-03 08:57:00,
2013-08-03 04:03:00,56.7,49.8,29.98,North,0,0.0,0.0,78,0.00,,,0.00,WUHU21023XXSP,2013-08-03 09:03:00,
2013-08-03 04:10:00,56.7,49.8,29.98,North,0,0.0,0.0,78,0.00,,,0.00,WUHU21023XXSP,2013-08-03 09:10:00,
2013-08-03 04:16:00,56.8,50.0,29.98,North,0,0.0,0.0,78,0.00,,,0.00,WUHU21023XXSP,2013-08-03 09:16:00,
2013-08-03 04:23:00,56.5,49.6,29.97,North,0,0.0,0.0,78,0.00,,,0.00,WUHU21023XXSP,2013-08-03 09:23:00,
2013-08-03 04:29:00,56.5,49.6,29.98,North,0,0.0,0.0,78,0.00,,,0.00,WUHU21023XXSP,2013-08-03 09:29:00,
2013-08-03 04:35:00,56.5,49.6,29.98,North,0,0.0,0.0,78,0.00,,,0.00,WUHU21023XXSP,2013-08-03 09:35:00,
2013-08-03 04:42:00,56.3,49.5,29.98,North,0,0.0,0.0,78,0.00,,,0.00,WUHU21023XXSP,2013-08-03 09:42:00,
2013-08-03 04:48:00,56.1,49.3,29.98,North,0,0.0,0.0,78,0.00,,,0.00,WUHU21023XXSP,2013-08-03 09:48:00,
2013-08-03 04:55:00,55.9,49.5,29.99,North,0,0.0,0.0,79,0.00,,,0.00,WUHU21023XXSP,2013-08-03 09:55:00,
2013-08-03 05:01:00,55.8,49.3,29.99,North,0,0.0,0.0,79,0.00,,,0.00,WUHU21023XXSP,2013-08-03 10:01:00,
2013-08-03 05:08:00,55.6,49.1,29.98,North,0,0.0,0.0,79,0.00,,,0.00,WUHU21023XXSP,2013-08-03 10:08:00,
2013-08-03 05:14:00,55.4,48.9,29.98,North,0,0.0,0.0,79,0.00,,,0.00,WUHU21023XXSP,2013-08-03 10:14:00,
2013-08-03 05:20:00,55.2,48.8,29.99,North,0,0.0,0.0,79,0.00,,,0.00,WUHU21023XXSP,2013-08-03 10:20:00,
2013-08-03 05:27:00,55.2,48.8,29.99,North,0,0.0,0.0,79,0.00,,,0.00,WUHU21023XXSP,2013-08-03 10:27:00,
2013-08-03 05:33:00,55.2,48.8,30.00,North,0,0.0,0.0,79,0.00,,,0.00,WUHU21023XXSP,2013-08-03 10:33:00,
2013-08-03 05:40:00,55.0,48.6,30.00,North,0,0.0,0.0,79,0.00,,,0.00,WUHU21023XXSP,2013-08-03 10:40:00,
2013-08-03 05:46:00,55.0,48.6,30.00,North,0,0.0,0.0,79,0.00,,,0.00,WUHU21023XXSP,2013-08-03 10:46:00,
2013-08-03 05:52:00,54.7,48.3,30.00,North,0,0.0,0.0,79,0.00,,,0.00,WUHU21023XXSP,2013-08-03 10:52:00,
2013-08-03 05:59:00,54.7,48.3,30.00,North,0,0.0,0.0,79,0.00,,,0.00,WUHU21023XXSP,2013-08-03 10:59:00,
2013-08-03 06:05:00,54.7,48.3,30.00,North,0,0.0,0.0,79,0.00,,,0.00,WUHU21023XXSP,2013-08-03 11:05:00,
2013-08-03 06:12:00,54.5,48.1,30.00,North,0,0.0,0.0,79,0.00,,,0.00,WUHU21023XXSP,2013-08-03 11:12:00,
2013-08-03 06:18:00,54.5,48.1,30.00,North,0,0.0,0.0,79,0.00,,,0.00,WUHU21023XXSP,2013-08-03 11:18:00,
2013-08-03 06:25:00,54.5,48.1,30.00,North,0,0.0,0.0,79,0.00,,,0.00,WUHU21023XXSP,2013-08-03 11:25:00,
2013-08-03 06:31:00,54.5,48.1,30.00,North,0,0.0,0.0,79,0.00,,,0.00,WUHU21023XXSP,2013-08-03 11:31:00,
2013-08-03 06:37:00,54.5,48.1,30.01,North,0,0.0,0.0,79,0.00,,,0.00,WUHU21023XXSP,2013-08-03 11:37:00,
2013-08-03 06:44:00,54.7,48.3,30.01,North,0,0.0,0.0,79,0.00,,,0.00,WUHU21023XXSP,2013-08-03 11:44:00,
2013-08-03 06:50:00,54.9,48.3,30.01,North,0,0.0,0.0,79,0.00,,,0.00,WUHU21023XXSP,2013-08-03 11:50:00,
2013-08-03 06:57:00,55.0,48.6,30.01,North,0,0.0,0.0,79,0.00,,,0.00,WUHU21023XXSP,2013-08-03 11:57:00,
2013-08-03 07:03:00,55.4,48.9,30.02,North,0,0.0,0.0,79,0.00,,,0.00,WUHU21023XXSP,2013-08-03 12:03:00,
2013-08-03 07:10:00,55.8,49.3,30.02,North,0,0.0,0.0,79,0.00,,,0.00,WUHU21023XXSP,2013-08-03 12:10:00,
2013-08-03 07:16:00,56.1,49.6,30.02,North,0,0.0,0.0,79,0.00,,,0.00,WUHU21023XXSP,2013-08-03 12:16:00,
2013-08-03 07:22:00,56.5,50.0,30.02,North,0,0.0,0.0,79,0.00,,,0.00,WUHU21023XXSP,2013-08-03 12:22:00,
2013-08-03 07:29:00,57.0,50.5,30.02,North,0,0.0,0.0,79,0.00,,,0.00,WUHU21023XXSP,2013-08-03 12:29:00,
2013-08-03 07:35:00,57.4,50.9,30.02,North,0,0.0,0.0,79,0.00,,,0.00,WUHU21023XXSP,2013-08-03 12:35:00,
2013-08-03 07:41:00,57.9,51.4,30.02,North,0,0.0,0.0,79,0.00,,,0.00,WUHU21023XXSP,2013-08-03 12:41:00,
2013-08-03 07:48:00,58.3,51.8,30.02,North,0,0.0,0.0,79,0.00,,,0.00,WUHU21023XXSP,2013-08-03 12:48:00,
2013-08-03 07:55:00,58.8,52.3,30.03,North,0,0.0,0.0,79,0.00,,,0.00,WUHU21023XXSP,2013-08-03 12:55:00,
2013-08-03 08:01:00,59.4,52.9,30.02,North,0,0.0,0.0,79,0.00,,,0.00,WUHU21023XXSP,2013-08-03 13:01:00,
2013-08-03 08:07:00,59.9,53.2,30.03,North,0,0.0,0.0,79,0.00,,,0.00,WUHU21023XXSP,2013-08-03 13:07:00,
2013-08-03 08:13:00,60.6,53.8,30.03,North,0,0.0,0.0,78,0.00,,,0.00,WUHU21023XXSP,2013-08-03 13:13:00,
2013-08-03 08:19:00,61.3,54.4,30.03,North,0,0.0,0.0,78,0.00,,,0.00,WUHU21023XXSP,2013-08-03 13:19:00,
2013-08-03 08:25:00,61.9,54.9,30.03,North,0,0.0,0.0,78,0.00,,,0.00,WUHU21023XXSP,2013-08-03 13:25:00,
2013-08-03 08:30:00,62.4,55.1,30.02,North,0,0.0,0.0,77,0.00,,,0.00,WUHU21023XXSP,2013-08-03 13:30:00,
2013-08-03 08:36:00,63.1,55.8,30.03,North,0,0.0,0.0,77,0.00,,,0.00,WUHU21023XXSP,2013-08-03 13:36:00,
2013-08-03 08:41:00,63.7,55.9,30.03,North,0,0.0,0.0,76,0.00,,,0.00,WUHU21023XXSP,2013-08-03 13:41:00,
2013-08-03 08:47:00,64.2,56.5,30.03,North,0,0.0,0.0,76,0.00,,,0.00,WUHU21023XXSP,2013-08-03 13:47:00,
2013-08-03 08:52:00,64.8,57.0,30.03,North,0,0.0,0.0,76,0.00,,,0.00,WUHU21023XXSP,2013-08-03 13:52:00,
2013-08-03 08:58:00,65.5,57.3,30.03,North,0,0.0,0.0,75,0.00,,,0.00,WUHU21023XXSP,2013-08-03 13:58:00,
2013-08-03 09:04:00,66.0,57.8,30.02,North,0,0.0,0.0,75,0.00,,,0.00,WUHU21023XXSP,2013-08-03 14:04:00,
2013-08-03 09:09:00,66.6,58.0,30.03,North,0,0.0,0.0,74,0.00,,,0.00,WUHU21023XXSP,2013-08-03 14:09:00,
2013-08-03 09:14:00,66.9,58.0,30.03,North,0,0.0,0.0,73,0.00,,,0.00,WUHU21023XXSP,2013-08-03 14:14:00,
2013-08-03 09:20:00,67.3,58.3,30.02,North,0,0.0,0.0,73,0.00,,,0.00,WUHU21023XXSP,2013-08-03 14:20:00,
2013-08-03 09:26:00,67.8,58.5,30.03,North,0,0.0,0.0,72,0.00,,,0.00,WUHU21023XXSP,2013-08-03 14:26:00,
2013-08-03 09:31:00,68.2,58.1,30.03,North,0,0.0,0.0,70,0.00,,,0.00,WUHU21023XXSP,2013-08-03 14:31:00,
2013-08-03 09:36:00,68.5,58.0,30.03,North,0,0.0,0.0,69,0.00,,,0.00,WUHU21023XXSP,2013-08-03 14:36:00,
2013-08-03 09:42:00,69.1,58.0,30.02,North,0,0.0,0.0,68,0.00,,,0.00,WUHU21023XXSP,2013-08-03 14:42:00,
2013-08-03 09:48:00,69.4,57.5,30.03,North,0,0.0,0.0,66,0.00,,,0.00,WUHU21023XXSP,2013-08-03 14:48:00,
2013-08-03 09:55:00,69.6,57.3,30.03,North,0,0.0,0.0,65,0.00,,,0.00,WUHU21023XXSP,2013-08-03 14:55:00,
2013-08-03 10:01:00,70.2,57.4,30.03,North,0,0.0,0.0,64,0.00,,,0.00,WUHU21023XXSP,2013-08-03 15:01:00,
2013-08-03 10:07:00,70.5,57.3,30.04,North,0,0.0,0.0,63,0.00,,,0.00,WUHU21023XXSP,2013-08-03 15:07:00,
2013-08-03 10:12:00,71.2,58.0,30.04,North,0,0.0,0.0,63,0.00,,,0.00,WUHU21023XXSP,2013-08-03 15:12:00,
2013-08-03 10:19:00,71.8,58.0,30.04,North,0,0.0,0.0,62,0.00,,,0.00,WUHU21023XXSP,2013-08-03 15:19:00,
2013-08-03 10:25:00,72.3,58.1,30.05,North,0,0.0,0.0,61,0.00,,,0.00,WUHU21023XXSP,2013-08-03 15:25:00,
2013-08-03 10:30:00,72.5,58.3,30.04,North,0,0.0,0.0,61,0.00,,,0.00,WUHU21023XXSP,2013-08-03 15:30:00,
2013-08-03 10:36:00,73.2,58.0,30.04,North,0,0.0,0.0,59,0.00,,,0.00,WUHU21023XXSP,2013-08-03 15:36:00,
2013-08-03 10:42:00,73.8,59.0,30.04,North,0,0.0,0.0,60,0.00,,,0.00,WUHU21023XXSP,2013-08-03 15:42:00,
2013-08-03 10:48:00,73.9,58.7,30.04,North,0,0.0,0.0,59,0.00,,,0.00,WUHU21023XXSP,2013-08-03 15:48:00,
2013-08-03 10:54:00,74.1,58.4,30.04,North,0,0.0,0.0,58,0.00,,,0.00,WUHU21023XXSP,2013-08-03 15:54:00,
2013-08-03 11:01:00,74.3,58.0,30.03,North,0,0.0,0.0,57,0.00,,,0.00,WUHU21023XXSP,2013-08-03 16:01:00,
2013-08-03 11:07:00,74.3,58.0,30.03,North,0,0.0,0.0,57,0.00,,,0.00,WUHU21023XXSP,2013-08-03 16:07:00,
2013-08-03 11:12:00,74.1,57.3,30.04,North,0,0.0,0.0,56,0.00,,,0.00,WUHU21023XXSP,2013-08-03 16:12:00,
2013-08-03 11:17:00,74.1,57.8,30.04,North,0,0.0,0.0,57,0.00,,,0.00,WUHU21023XXSP,2013-08-03 16:17:00,
2013-08-03 11:23:00,74.1,57.8,30.04,North,0,0.0,0.0,57,0.00,,,0.00,WUHU21023XXSP,2013-08-03 16:23:00,
2013-08-03 11:29:00,74.1,57.3,30.04,North,0,0.0,0.0,56,0.00,,,0.00,WUHU21023XXSP,2013-08-03 16:29:00,
2013-08-03 11:35:00,74.1,57.3,30.04,North,0,0.0,0.0,56,0.00,,,0.00,WUHU21023XXSP,2013-08-03 16:35:00,
2013-08-03 11:40:00,74.5,57.7,30.04,North,0,0.0,0.0,56,0.00,,,0.00,WUHU21023XXSP,2013-08-03 16:40:00,
2013-08-03 11:46:00,74.8,58.1,30.04,North,0,0.0,0.0,56,0.00,,,0.00,WUHU21023XXSP,2013-08-03 16:46:00,
2013-08-03 11:51:00,74.7,57.4,30.03,North,0,0.0,0.0,55,0.00,,,0.00,WUHU21023XXSP,2013-08-03 16:51:00,
2013-08-03 11:56:00,74.5,57.2,30.03,North,0,0.0,0.0,55,0.00,,,0.00,WUHU21023XXSP,2013-08-03 16:56:00,
2013-08-03 12:02:00,74.1,56.8,30.04,North,0,0.0,0.0,55,0.00,,,0.00,WUHU21023XXSP,2013-08-03 17:02:00,
2013-08-03 12:07:00,74.1,56.8,30.04,North,0,0.0,0.0,55,0.00,,,0.00,WUHU21023XXSP,2013-08-03 17:07:00,
2013-08-03 12:14:00,73.9,56.7,30.05,North,0,0.0,0.0,55,0.00,,,0.00,WUHU21023XXSP,2013-08-03 17:14:00,
2013-08-03 12:19:00,74.1,56.8,30.05,North,0,0.0,0.0,55,0.00,,,0.00,WUHU21023XXSP,2013-08-03 17:19:00,
2013-08-03 12:24:00,74.3,57.0,30.05,North,0,0.0,0.0,55,0.00,,,0.00,WUHU21023XXSP,2013-08-03 17:24:00,
2013-08-03 12:30:00,74.1,57.3,30.05,North,0,0.0,0.0,56,0.00,,,0.00,WUHU21023XXSP,2013-08-03 17:30:00,
2013-08-03 12:35:00,74.1,56.8,30.05,North,0,0.0,0.0,55,0.00,,,0.00,WUHU21023XXSP,2013-08-03 17:35:00,
2013-08-03 12:42:00,74.1,57.3,30.05,North,0,0.0,0.0,56,0.00,,,0.00,WUHU21023XXSP,2013-08-03 17:42:00,
2013-08-03 12:49:00,74.1,56.8,30.05,North,0,0.0,0.0,55,0.00,,,0.00,WUHU21023XXSP,2013-08-03 17:49:00,
2013-08-03 12:54:00,73.9,57.2,30.05,North,0,0.0,0.0,56,0.00,,,0.00,WUHU21023XXSP,2013-08-03 17:54:00,
2013-08-03 13:00:00,74.1,57.3,30.05,North,0,0.0,0.0,56,0.00,,,0.00,WUHU21023XXSP,2013-08-03 18:00:00,
2013-08-03 13:06:00,74.5,57.7,30.04,North,0,0.0,0.0,56,0.00,,,0.00,WUHU21023XXSP,2013-08-03 18:06:00,
2013-08-03 13:11:00,74.5,57.2,30.04,North,0,0.0,0.0,55,0.00,,,0.00,WUHU21023XXSP,2013-08-03 18:11:00,
2013-08-03 13:17:00,74.5,57.2,30.04,North,0,0.0,0.0,55,0.00,,,0.00,WUHU21023XXSP,2013-08-03 18:17:00,
2013-08-03 13:22:00,74.8,57.6,30.05,North,0,0.0,0.0,55,0.00,,,0.00,WUHU21023XXSP,2013-08-03 18:22:00,
2013-08-03 13:28:00,74.5,57.7,30.04,North,0,0.0,0.0,56,0.00,,,0.00,WUHU21023XXSP,2013-08-03 18:28:00,
2013-08-03 13:33:00,74.1,57.3,30.04,North,0,0.0,0.0,56,0.00,,,0.00,WUHU21023XXSP,2013-08-03 18:33:00,
2013-08-03 13:40:00,73.9,57.2,30.04,North,0,0.0,0.0,56,0.00,,,0.00,WUHU21023XXSP,2013-08-03 18:40:00,
2013-08-03 13:45:00,73.9,57.2,30.05,North,0,0.0,0.0,56,0.00,,,0.00,WUHU21023XXSP,2013-08-03 18:45:00,
2013-08-03 13:52:00,74.3,57.5,30.05,North,0,0.0,0.0,56,0.00,,,0.00,WUHU21023XXSP,2013-08-03 18:52:00,
2013-08-03 13:57:00,74.5,57.7,30.05,North,0,0.0,0.0,56,0.00,,,0.00,WUHU21023XXSP,2013-08-03 18:57:00,
2013-08-03 14:03:00,75.0,58.2,30.05,North,0,0.0,0.0,56,0.00,,,0.00,WUHU21023XXSP,2013-08-03 19:03:00,
2013-08-03 14:08:00,75.6,58.2,30.05,North,0,0.0,0.0,55,0.00,,,0.00,WUHU21023XXSP,2013-08-03 19:08:00,
2013-08-03 14:13:00,75.9,58.9,30.05,North,0,0.0,0.0,56,0.00,,,0.00,WUHU21023XXSP,2013-08-03 19:13:00,
2013-08-03 14:20:00,76.6,59.2,30.04,North,0,0.0,0.0,55,0.00,,,0.00,WUHU21023XXSP,2013-08-03 19:20:00,
2013-08-03 14:25:00,76.8,59.4,30.05,North,0,0.0,0.0,55,0.00,,,0.00,WUHU21023XXSP,2013-08-03 19:25:00,
2013-08-03 14:32:00,76.8,58.9,30.04,North,0,0.0,0.0,54,0.00,,,0.00,WUHU21023XXSP,2013-08-03 19:32:00,
2013-08-03 14:38:00,76.8,58.9,30.05,North,0,0.0,0.0,54,0.00,,,0.00,WUHU21023XXSP,2013-08-03 19:38:00,
2013-08-03 14:44:00,76.8,58.9,30.05,North,0,0.0,0.0,54,0.00,,,0.00,WUHU21023XXSP,2013-08-03 19:44:00,
2013-08-03 14:51:00,76.8,58.9,30.05,North,0,0.0,0.0,54,0.00,,,0.00,WUHU21023XXSP,2013-08-03 19:51:00,
2013-08-03 14:57:00,76.8,58.9,30.05,North,0,0.0,0.0,54,0.00,,,0.00,WUHU21023XXSP,2013-08-03 19:57:00,
2013-08-03 15:03:00,76.8,58.4,30.05,North,0,0.0,0.0,53,0.00,,,0.00,WUHU21023XXSP,2013-08-03 20:03:00,
2013-08-03 15:08:00,76.6,58.7,30.04,North,0,0.0,0.0,54,0.00,,,0.00,WUHU21023XXSP,2013-08-03 20:08:00,
2013-08-03 15:15:00,76.6,59.2,30.05,North,0,0.0,0.0,55,0.00,,,0.00,WUHU21023XXSP,2013-08-03 20:15:00,
2013-08-03 15:22:00,76.3,58.9,30.05,North,0,0.0,0.0,55,0.00,,,0.00,WUHU21023XXSP,2013-08-03 20:22:00,
2013-08-03 15:29:00,76.3,59.4,30.04,North,0,0.0,0.0,56,0.00,,,0.00,WUHU21023XXSP,2013-08-03 20:29:00,
2013-08-03 15:35:00,75.9,58.6,30.04,North,0,0.0,0.0,55,0.00,,,0.00,WUHU21023XXSP,2013-08-03 20:35:00,
2013-08-03 15:42:00,75.6,58.7,30.04,North,0,0.0,0.0,56,0.00,,,0.00,WUHU21023XXSP,2013-08-03 20:42:00,
2013-08-03 15:47:00,75.0,57.7,30.04,North,0,0.0,0.0,55,0.00,,,0.00,WUHU21023XXSP,2013-08-03 20:47:00,
2013-08-03 15:53:00,74.8,58.1,30.04,North,0,0.0,0.0,56,0.00,,,0.00,WUHU21023XXSP,2013-08-03 20:53:00,
2013-08-03 16:00:00,74.8,58.6,30.04,North,0,0.0,0.0,57,0.00,,,0.00,WUHU21023XXSP,2013-08-03 21:00:00,
2013-08-03 16:06:00,75.0,58.2,30.04,North,0,0.0,0.0,56,0.00,,,0.00,WUHU21023XXSP,2013-08-03 21:06:00,
2013-08-03 16:12:00,75.6,59.3,30.04,North,0,0.0,0.0,57,0.00,,,0.00,WUHU21023XXSP,2013-08-03 21:12:00,
2013-08-03 16:19:00,75.6,59.3,30.04,North,0,0.0,0.0,57,0.00,,,0.00,WUHU21023XXSP,2013-08-03 21:19:00,
2013-08-03 16:25:00,75.7,58.9,30.03,North,0,0.0,0.0,56,0.00,,,0.00,WUHU21023XXSP,2013-08-03 21:25:00,
2013-08-03 16:32:00,75.7,58.9,30.03,North,0,0.0,0.0,56,0.00,,,0.00,WUHU21023XXSP,2013-08-03 21:32:00,
2013-08-03 16:38:00,75.7,58.9,30.03,North,0,0.0,0.0,56,0.00,,,0.00,WUHU21023XXSP,2013-08-03 21:38:00,
2013-08-03 16:44:00,75.7,58.4,30.03,North,0,0.0,0.0,55,0.00,,,0.00,WUHU21023XXSP,2013-08-03 21:44:00,
2013-08-03 16:51:00,75.4,57.6,30.03,North,0,0.0,0.0,54,0.00,,,0.00,WUHU21023XXSP,2013-08-03 21:51:00,
2013-08-03 16:57:00,75.0,57.2,30.03,North,0,0.0,0.0,54,0.00,,,0.00,WUHU21023XXSP,2013-08-03 21:57:00,
2013-08-03 17:02:00,74.8,57.1,30.03,North,0,0.0,0.0,54,0.00,,,0.00,WUHU21023XXSP,2013-08-03 22:02:00,
2013-08-03 17:07:00,74.8,56.6,30.03,North,0,0.0,0.0,53,0.00,,,0.00,WUHU21023XXSP,2013-08-03 22:07:00,
2013-08-03 17:13:00,74.5,56.2,30.03,North,0,0.0,0.0,53,0.00,,,0.00,WUHU21023XXSP,2013-08-03 22:13:00,
2013-08-03 17:18:00,74.5,56.7,30.03,North,0,0.0,0.0,54,0.00,,,0.00,WUHU21023XXSP,2013-08-03 22:18:00,
2013-08-03 17:23:00,74.1,56.8,30.03,North,0,0.0,0.0,55,0.00,,,0.00,WUHU21023XXSP,2013-08-03 22:23:00,
2013-08-03 17:30:00,74.1,56.3,30.03,North,0,0.0,0.0,54,0.00,,,0.00,WUHU21023XXSP,2013-08-03 22:30:00,
2013-08-03 17:36:00,73.9,56.7,30.03,North,0,0.0,0.0,55,0.00,,,0.00,WUHU21023XXSP,2013-08-03 22:36:00,
2013-08-03 17:41:00,73.8,56.5,30.03,North,0,0.0,0.0,55,0.00,,,0.00,WUHU21023XXSP,2013-08-03 22:41:00,
2013-08-03 17:48:00,73.2,56.0,30.03,North,0,0.0,0.0,55,0.00,,,0.00,WUHU21023XXSP,2013-08-03 22:48:00,
2013-08-03 17:55:00,73.0,56.3,30.03,North,0,0.0,0.0,56,0.00,,,0.00,WUHU21023XXSP,2013-08-03 22:55:00,
2013-08-03 18:01:00,72.9,56.6,30.03,North,0,0.0,0.0,57,0.00,,,0.00,WUHU21023XXSP,2013-08-03 23:01:00,
2013-08-03 18:07:00,73.0,55.8,30.03,North,0,0.0,0.0,55,0.00,,,0.00,WUHU21023XXSP,2013-08-03 23:07:00,
2013-08-03 18:14:00,73.0,56.3,30.04,North,0,0.0,0.0,56,0.00,,,0.00,WUHU21023XXSP,2013-08-03 23:14:00,
2013-08-03 18:20:00,73.2,56.5,30.03,North,0,0.0,0.0,56,0.00,,,0.00,WUHU21023XXSP,2013-08-03 23:20:00,
2013-08-03 18:26:00,73.4,56.6,30.03,North,0,0.0,0.0,56,0.00,,,0.00,WUHU21023XXSP,2013-08-03 23:26:00,
2013-08-03 18:33:00,73.0,56.3,30.04,North,0,0.0,0.0,56,0.00,,,0.00,WUHU21023XXSP,2013-08-03 23:33:00,
2013-08-03 18:39:00,72.3,55.7,30.04,North,0,0.0,0.0,56,0.00,,,0.00,WUHU21023XXSP,2013-08-03 23:39:00,
2013-08-03 18:46:00,71.8,56.2,30.04,North,0,0.0,0.0,58,0.00,,,0.00,WUHU21023XXSP,2013-08-03 23:46:00,
2013-08-03 18:52:00,71.6,57.0,30.04,North,0,0.0,0.0,60,0.00,,,0.00,WUHU21023XXSP,2013-08-03 23:52:00,
2013-08-03 18:59:00,71.4,57.3,30.03,North,0,0.0,0.0,61,0.00,,,0.00,WUHU21023XXSP,2013-08-03 23:59:00,
2013-08-03 19:05:00,71.2,57.1,30.04,North,0,0.0,0.0,61,0.00,,,0.00,WUHU21023XXSP,2013-08-04 00:05:00,
2013-08-03 19:12:00,71.1,57.4,30.04,North,0,0.0,0.0,62,0.00,,,0.00,WUHU21023XXSP,2013-08-04 00:12:00,
2013-08-03 19:18:00,70.7,56.6,30.04,North,0,0.0,0.0,61,0.00,,,0.00,WUHU21023XXSP,2013-08-04 00:18:00,
2013-08-03 19:24:00,70.3,56.7,30.04,North,0,0.0,0.0,62,0.00,,,0.00,WUHU21023XXSP,2013-08-04 00:24:00,
2013-08-03 19:31:00,70.0,56.4,30.05,North,0,0.0,0.0,62,0.00,,,0.00,WUHU21023XXSP,2013-08-04 00:31:00,
2013-08-03 19:37:00,69.4,56.3,30.05,North,0,0.0,0.0,63,0.00,,,0.00,WUHU21023XXSP,2013-08-04 00:37:00,
2013-08-03 19:43:00,68.9,56.2,30.04,North,0,0.0,0.0,64,0.00,,,0.00,WUHU21023XXSP,2013-08-04 00:43:00,
2013-08-03 19:50:00,68.7,56.0,30.04,North,0,0.0,0.0,64,0.00,,,0.00,WUHU21023XXSP,2013-08-04 00:50:00,
2013-08-03 19:57:00,68.2,55.5,30.04,North,0,0.0,0.0,64,0.00,,,0.00,WUHU21023XXSP,2013-08-04 00:57:00,
2013-08-03 20:03:00,67.8,55.6,30.04,North,0,0.0,0.0,65,0.00,,,0.00,WUHU21023XXSP,2013-08-04 01:03:00,
2013-08-03 20:09:00,67.3,55.1,30.04,North,0,0.0,0.0,65,0.00,,,0.00,WUHU21023XXSP,2013-08-04 01:09:00,
2013-08-03 20:16:00,66.7,55.0,30.05,WNW,292,0.0,0.0,66,0.00,,,0.00,WUHU21023XXSP,2013-08-04 01:16:00,
2013-08-03 20:22:00,66.2,54.5,30.04,WNW,292,0.0,0.0,66,0.00,,,0.00,WUHU21023XXSP,2013-08-04 01:22:00,
2013-08-03 20:29:00,65.8,54.1,30.04,WNW,292,0.0,0.0,66,0.00,,,0.00,WUHU21023XXSP,2013-08-04 01:29:00,
2013-08-03 20:35:00,65.1,53.4,30.05,WNW,292,0.0,0.0,66,0.00,,,0.00,WUHU21023XXSP,2013-08-04 01:35:00,
2013-08-03 20:41:00,64.8,53.5,30.05,WNW,292,0.0,0.0,67,0.00,,,0.00,WUHU21023XXSP,2013-08-04 01:41:00,
2013-08-03 20:48:00,64.2,53.0,30.05,WNW,292,0.0,0.0,67,0.00,,,0.00,WUHU21023XXSP,2013-08-04 01:48:00,
2013-08-03 20:54:00,64.0,53.3,30.05,NW,315,0.0,0.0,68,0.00,,,0.00,WUHU21023XXSP,2013-08-04 01:54:00,
2013-08-03 21:01:00,63.7,53.3,30.05,NW,315,0.0,0.0,69,0.00,,,0.00,WUHU21023XXSP,2013-08-04 02:01:00,
2013-08-03 21:07:00,63.3,53.0,30.06,NW,315,0.0,0.0,69,0.00,,,0.00,WUHU21023XXSP,2013-08-04 02:07:00,
2013-08-03 21:14:00,63.1,53.2,30.06,NW,315,0.0,0.0,70,0.00,,,0.00,WUHU21023XXSP,2013-08-04 02:14:00,
2013-08-03 21:20:00,63.0,53.1,30.07,NW,315,0.0,0.0,70,0.00,,,0.00,WUHU21023XXSP,2013-08-04 02:20:00,
2013-08-03 21:26:00,62.8,53.2,30.07,NW,315,0.0,0.0,71,0.00,,,0.00,WUHU21023XXSP,2013-08-04 02:26:00,
2013-08-03 21:33:00,62.6,53.1,30.07,NW,315,0.0,0.0,71,0.00,,,0.00,WUHU21023XXSP,2013-08-04 02:33:00,
2013-08-03 21:39:00,62.4,52.9,30.07,NW,315,0.0,0.0,71,0.00,,,0.00,WUHU21023XXSP,2013-08-04 02:39:00,
2013-08-03 21:45:00,62.2,53.3,30.08,NW,315,0.0,0.0,72,0.00,,,0.00,WUHU21023XXSP,2013-08-04 02:45:00,
2013-08-03 21:52:00,62.2,53.5,30.07,NW,315,0.0,0.0,73,0.00,,,0.00,WUHU21023XXSP,2013-08-04 02:52:00,
2013-08-03 21:58:00,62.1,53.7,30.07,NW,315,0.0,0.0,74,0.00,,,0.00,WUHU21023XXSP,2013-08-04 02:58:00,
2013-08-03 22:05:00,61.9,53.5,30.08,NW,315,0.0,0.0,74,0.00,,,0.00,WUHU21023XXSP,2013-08-04 03:05:00,
2013-08-03 22:11:00,61.7,53.3,30.08,NW,315,0.0,0.0,74,0.00,,,0.00,WUHU21023XXSP,2013-08-04 03:11:00,
2013-08-03 22:18:00,61.5,53.2,30.08,NW,315,0.0,0.0,74,0.00,,,0.00,WUHU21023XXSP,2013-08-04 03:18:00,
2013-08-03 22:24:00,61.3,53.0,30.08,NW,315,0.0,0.0,74,0.00,,,0.00,WUHU21023XXSP,2013-08-04 03:24:00,
2013-08-03 22:30:00,61.2,53.2,30.08,NW,315,0.0,0.0,75,0.00,,,0.00,WUHU21023XXSP,2013-08-04 03:30:00,
2013-08-03 22:37:00,61.0,53.4,30.08,NW,315,0.0,0.0,76,0.00,,,0.00,WUHU21023XXSP,2013-08-04 03:37:00,
2013-08-03 22:44:00,60.6,53.1,30.08,NW,315,0.0,0.0,76,0.00,,,0.00,WUHU21023XXSP,2013-08-04 03:44:00,
2013-08-03 22:50:00,60.4,52.9,30.08,NW,315,0.0,0.0,76,0.00,,,0.00,WUHU21023XXSP,2013-08-04 03:50:00,
2013-08-03 22:56:00,60.4,52.9,30.08,NW,315,0.0,0.0,76,0.00,,,0.00,WUHU21023XXSP,2013-08-04 03:56:00,
2013-08-03 23:01:00,60.3,52.7,30.08,NW,315,0.0,0.0,76,0.00,,,0.00,WUHU21023XXSP,2013-08-04 04:01:00,
2013-08-03 23:03:00,60.1,52.7,30.08,NW,315,0.0,0.0,76,0.00,,,0.00,WUHU21023XXSP,2013-08-04 04:03:00,
2013-08-03 23:05:00,60.1,52.5,30.08,NW,315,0.0,0.0,76,0.00,,,0.00,WUHU21023XXSP,2013-08-04 04:05:00,
2013-08-03 23:07:00,60.1,52.5,30.08,NW,315,0.0,0.0,76,0.00,,,0.00,WUHU21023XXSP,2013-08-04 04:07:00,
2013-08-03 23:13:00,59.9,52.3,30.08,NW,315,0.0,0.0,76,0.00,,,0.00,WUHU21023XXSP,2013-08-04 04:13:00,
2013-08-03 23:20:00,59.7,52.2,30.08,NW,315,0.0,0.0,76,0.00,,,0.00,WUHU21023XXSP,2013-08-04 04:20:00,
2013-08-03 23:26:00,59.5,52.0,30.09,NW,315,0.0,0.0,76,0.00,,,0.00,WUHU21023XXSP,2013-08-04 04:26:00,
2013-08-03 23:33:00,59.2,51.6,30.08,NW,315,0.0,0.0,76,0.00,,,0.00,WUHU21023XXSP,2013-08-04 04:33:00,
2013-08-03 23:39:00,58.8,51.6,30.08,NW,315,0.0,0.0,77,0.00,,,0.00,WUHU21023XXSP,2013-08-04 04:39:00,
2013-08-03 23:46:00,58.8,51.6,30.09,NW,315,0.0,0.0,77,0.00,,,0.00,WUHU21023XXSP,2013-08-04 04:46:00,
2013-08-03 23:52:00,58.3,51.1,30.09,NW,315,0.0,0.0,77,0.00,,,0.00,WUHU21023XXSP,2013-08-04 04:52:00,
2013-08-03 23:58:00,58.1,50.9,30.09,NW,315,0.0,0.0,77,0.00,,,0.00,WUHU21023XXSP,2013-08-04 04:58:00,